Pagrindinis puslapis
METAR-TAF:

METAR-TAF

Oro uostai :

Sanikiluaq, Nunavutas, Kanada

platuma: 56-32N, ilguma: 079-15W, Aukštis: 32 m

Dabartinis oras

Ataskaita buvo paskelbta 14 valandos ir 0 minutes, ne 23:00 UTC
Vėjas 10 kt iš Vakarų/Pietvakarių
Temperatūra -27°C
Drėgmė 75%
Slėgis 1011 hPa
Matomumas: 24.1 km
Mažai debesys ne aukštis 3000 ft

METAR: CYSK 182300Z 25010KT 15SM FEW030 M27/M30 A2986 RMK SC1 SN CVR/NIL LAST OBS/NEXT 191300UTC SLP120

Laikas: 08:00 (13:00 UTC)


TAF: trūkstamas

Orai ataskaitas ir orų prognozės (METAR, TAF).

turimą stotys yra geltonos ir raudonos taškus žemėlapyje.

Perkelti pele per norėdami pamatyti stoties vardą.

Tada spustelėkite, norėdami matyti oro stebėjimo ir prognozės.

Norėdami pakeisti žemėlapį: spustelėkite ant žalios mygtukų su juodo kryžiaus žemyn,; žalią mygtuką su brūkšneliu, jei norite nutolinti; arba žalių rodyklių gretimoms žemėlapius.


METAR-TAF: